Time,TemperatureF,DewpointF,PressureIn,WindDirection,WindDirectionDegrees,WindSpeedMPH,WindSpeedGustMPH,Humidity,HourlyPrecipIn,Conditions,Clouds,dailyrainin,SoftwareType,DateUTC
2013-04-07 00:06:00,23.7,16.0,30.32,West,279,0.0,0.0,72,0.00,,,0.00,weatherlink.com 1.10,2013-04-07 04:06:00,
2013-04-07 00:36:00,24.5,17.0,30.32,West,279,0.0,0.0,73,0.00,,,0.00,weatherlink.com 1.10,2013-04-07 04:36:00,
2013-04-07 00:51:00,25.0,18.0,30.32,West,279,0.0,0.0,74,0.00,,,0.00,weatherlink.com 1.10,2013-04-07 04:51:00,
2013-04-07 01:06:00,25.5,18.0,30.32,West,279,0.0,0.0,74,0.00,,,0.00,weatherlink.com 1.10,2013-04-07 05:06:00,
2013-04-07 01:22:00,26.0,19.0,30.32,West,279,0.0,0.0,74,0.00,,,0.00,weatherlink.com 1.10,2013-04-07 05:22:00,
2013-04-07 01:36:00,26.5,19.0,30.31,West,279,0.0,0.0,72,0.00,,,0.00,weatherlink.com 1.10,2013-04-07 05:36:00,
2013-04-07 01:51:00,26.3,18.0,30.31,West,279,0.0,0.0,71,0.00,,,0.00,weatherlink.com 1.10,2013-04-07 05:51:00,
2013-04-07 04:03:00,24.4,18.0,30.28,West,279,0.0,0.0,77,0.00,,,0.00,weatherlink.com 1.10,2013-04-07 08:03:00,
2013-04-07 04:52:00,25.0,19.0,30.28,West,279,0.0,0.0,77,0.00,,,0.00,weatherlink.com 1.10,2013-04-07 08:52:00,
2013-04-07 05:07:00,25.3,18.0,30.28,West,279,0.0,0.0,75,0.00,,,0.00,weatherlink.com 1.10,2013-04-07 09:07:00,
2013-04-07 05:37:00,25.6,19.0,30.28,West,279,0.0,0.0,75,0.00,,,0.00,weatherlink.com 1.10,2013-04-07 09:37:00,
2013-04-07 05:52:00,25.2,19.0,30.28,West,279,0.0,0.0,77,0.00,,,0.00,weatherlink.com 1.10,2013-04-07 09:52:00,
2013-04-07 06:07:00,24.4,18.0,30.28,West,279,0.0,0.0,78,0.00,,,0.00,weatherlink.com 1.10,2013-04-07 10:07:00,
2013-04-07 06:22:00,24.0,19.0,30.28,West,279,0.0,0.0,80,0.00,,,0.00,weatherlink.com 1.10,2013-04-07 10:22:00,
2013-04-07 06:37:00,23.7,18.0,30.29,West,279,0.0,0.0,80,0.00,,,0.00,weatherlink.com 1.10,2013-04-07 10:37:00,
2013-04-07 06:52:00,23.7,19.0,30.30,West,279,0.0,0.0,81,0.00,,,0.00,weatherlink.com 1.10,2013-04-07 10:52:00,
2013-04-07 07:07:00,24.4,19.0,30.31,West,279,0.0,0.0,81,0.00,,,0.00,weatherlink.com 1.10,2013-04-07 11:07:00,
2013-04-07 07:22:00,26.3,20.0,30.31,West,279,0.0,0.0,76,0.00,,,0.00,weatherlink.com 1.10,2013-04-07 11:22:00,
2013-04-07 07:37:00,26.9,20.0,30.31,West,279,0.0,0.0,74,0.00,,,0.00,weatherlink.com 1.10,2013-04-07 11:37:00,
2013-04-07 07:52:00,27.6,20.0,30.30,West,279,0.0,0.0,72,0.00,,,0.00,weatherlink.com 1.10,2013-04-07 11:52:00,
2013-04-07 08:07:00,28.5,19.0,30.30,West,279,0.0,0.0,67,0.00,,,0.00,weatherlink.com 1.10,2013-04-07 12:07:00,
2013-04-07 08:22:00,30.1,17.0,30.29,West,279,0.0,1.0,58,0.00,,,0.00,weatherlink.com 1.10,2013-04-07 12:22:00,
2013-04-07 08:37:00,32.1,17.0,30.28,West,279,0.0,2.0,54,0.00,,,0.00,weatherlink.com 1.10,2013-04-07 12:37:00,
2013-04-07 08:52:00,33.4,16.0,30.27,West,279,0.0,3.0,49,0.00,,,0.00,weatherlink.com 1.10,2013-04-07 12:52:00,
2013-04-07 09:07:00,35.3,15.0,30.25,NNW,332,0.0,4.0,43,0.00,,,0.00,weatherlink.com 1.10,2013-04-07 13:07:00,
2013-04-07 09:22:00,36.4,15.0,30.24,NNE,14,0.0,4.0,41,0.00,,,0.00,weatherlink.com 1.10,2013-04-07 13:22:00,
2013-04-07 09:37:00,36.6,15.0,30.23,NNE,14,3.0,3.0,41,0.00,,,0.00,weatherlink.com 1.10,2013-04-07 13:37:00,
2013-04-07 09:55:00,36.5,15.0,30.22,NNE,21,0.0,3.0,42,0.00,,,0.00,weatherlink.com 1.10,2013-04-07 13:55:00,
2013-04-07 10:07:00,36.8,16.0,30.21,NNE,21,0.0,3.0,43,0.00,,,0.00,weatherlink.com 1.10,2013-04-07 14:07:00,
2013-04-07 10:23:00,37.1,17.0,30.20,NE,38,1.0,5.0,44,0.00,,,0.00,weatherlink.com 1.10,2013-04-07 14:23:00,
2013-04-07 10:38:00,38.2,18.0,30.20,NE,38,0.0,2.0,44,0.00,,,0.00,weatherlink.com 1.10,2013-04-07 14:38:00,
2013-04-07 10:53:00,40.0,18.0,30.19,NE,47,0.0,6.0,42,0.00,,,0.00,weatherlink.com 1.10,2013-04-07 14:53:00,
2013-04-07 11:08:00,41.3,18.0,30.18,NNE,33,0.0,5.0,40,0.00,,,0.00,weatherlink.com 1.10,2013-04-07 15:08:00,
2013-04-07 11:23:00,42.1,19.0,30.17,ESE,112,4.0,12.0,39,0.00,,,0.00,weatherlink.com 1.10,2013-04-07 15:23:00,
2013-04-07 11:38:00,44.3,19.0,30.15,ESE,123,3.0,8.0,36,0.00,,,0.00,weatherlink.com 1.10,2013-04-07 15:38:00,
2013-04-07 11:53:00,44.1,19.0,30.14,SW,231,4.0,18.0,36,0.00,,,0.00,weatherlink.com 1.10,2013-04-07 15:53:00,
2013-04-07 12:08:00,44.1,19.0,30.12,SE,128,4.0,10.0,36,0.00,,,0.00,weatherlink.com 1.10,2013-04-07 16:08:00,
2013-04-07 12:23:00,45.6,21.0,30.11,NW,325,6.0,9.0,37,0.00,,,0.00,weatherlink.com 1.10,2013-04-07 16:23:00,
2013-04-07 12:38:00,46.3,18.0,30.11,ENE,78,4.0,13.0,33,0.00,,,0.00,weatherlink.com 1.10,2013-04-07 16:38:00,
2013-04-07 12:53:00,46.1,18.0,30.09,SE,128,2.0,11.0,33,0.00,,,0.00,weatherlink.com 1.10,2013-04-07 16:53:00,
2013-04-07 13:08:00,47.1,19.0,30.09,SE,144,4.0,15.0,33,0.00,,,0.00,weatherlink.com 1.10,2013-04-07 17:08:00,
2013-04-07 13:23:00,47.6,19.0,30.08,ESE,103,5.0,9.0,32,0.00,,,0.00,weatherlink.com 1.10,2013-04-07 17:23:00,
2013-04-07 14:08:00,51.6,19.0,30.04,SSE,162,1.0,25.0,28,0.00,,,0.00,weatherlink.com 1.10,2013-04-07 18:08:00,
2013-04-07 14:24:00,51.5,20.0,30.02,SSW,198,1.0,15.0,29,0.00,,,0.00,weatherlink.com 1.10,2013-04-07 18:24:00,
2013-04-07 14:54:00,53.3,22.0,30.00,South,182,3.0,17.0,29,0.00,,,0.00,weatherlink.com 1.10,2013-04-07 18:54:00,
2013-04-07 15:09:00,54.0,22.0,29.98,East,98,5.0,18.0,29,0.00,,,0.00,weatherlink.com 1.10,2013-04-07 19:09:00,
2013-04-07 15:24:00,55.2,22.0,29.96,SSE,162,5.0,11.0,28,0.00,,,0.00,weatherlink.com 1.10,2013-04-07 19:24:00,
2013-04-07 15:39:00,55.6,23.0,29.94,ESE,120,1.0,12.0,28,0.00,,,0.00,weatherlink.com 1.10,2013-04-07 19:39:00,
2013-04-07 15:54:00,55.3,22.0,29.91,East,100,3.0,14.0,27,0.00,,,0.00,weatherlink.com 1.10,2013-04-07 19:54:00,
2013-04-07 16:09:00,55.0,22.0,29.91,South,182,1.0,21.0,28,0.00,,,0.00,weatherlink.com 1.10,2013-04-07 20:09:00,
2013-04-07 16:24:00,55.1,24.0,29.93,SE,141,0.0,11.0,30,0.00,,,0.00,weatherlink.com 1.10,2013-04-07 20:24:00,
2013-04-07 16:39:00,55.9,24.0,29.93,SE,129,3.0,15.0,29,0.00,,,0.00,weatherlink.com 1.10,2013-04-07 20:39:00,
2013-04-07 17:11:00,57.8,27.0,29.91,SSW,195,7.0,11.0,31,0.00,,,0.00,weatherlink.com 1.10,2013-04-07 21:11:00,
2013-04-07 17:24:00,56.4,27.0,29.92,South,190,3.0,14.0,33,0.00,,,0.00,weatherlink.com 1.10,2013-04-07 21:24:00,
2013-04-07 17:39:00,55.6,28.0,29.93,SSE,168,2.0,12.0,35,0.00,,,0.00,weatherlink.com 1.10,2013-04-07 21:39:00,
2013-04-07 17:54:00,54.9,29.0,29.93,East,85,1.0,11.0,37,0.00,,,0.00,weatherlink.com 1.10,2013-04-07 21:54:00,
2013-04-07 18:24:00,54.3,30.0,29.93,SW,227,0.0,11.0,39,0.00,,,0.00,weatherlink.com 1.10,2013-04-07 22:24:00,
2013-04-07 18:39:00,54.5,30.0,29.94,SSE,159,7.0,11.0,39,0.00,,,0.00,weatherlink.com 1.10,2013-04-07 22:39:00,
2013-04-07 18:54:00,53.9,30.0,29.94,SSW,212,0.0,11.0,40,0.00,,,0.00,weatherlink.com 1.10,2013-04-07 22:54:00,
2013-04-07 19:09:00,52.9,30.0,29.94,SSE,154,1.0,11.0,41,0.00,,,0.00,weatherlink.com 1.10,2013-04-07 23:09:00,
2013-04-07 19:24:00,52.1,30.0,29.93,SE,134,2.0,12.0,43,0.00,,,0.00,weatherlink.com 1.10,2013-04-07 23:24:00,
2013-04-07 19:54:00,50.9,30.0,29.94,SE,140,8.0,11.0,45,0.00,,,0.00,weatherlink.com 1.10,2013-04-07 23:54:00,
2013-04-07 20:09:00,50.5,30.0,29.95,ESE,103,0.0,10.0,46,0.00,,,0.00,weatherlink.com 1.10,2013-04-08 00:09:00,
2013-04-07 20:24:00,49.9,31.0,29.95,South,169,0.0,9.0,49,0.00,,,0.00,weatherlink.com 1.10,2013-04-08 00:24:00,
2013-04-07 20:39:00,48.0,30.0,29.96,ESE,114,3.0,9.0,51,0.00,,,0.00,weatherlink.com 1.10,2013-04-08 00:39:00,
2013-04-07 20:54:00,47.4,31.0,29.95,SE,140,0.0,7.0,53,0.00,,,0.00,weatherlink.com 1.10,2013-04-08 00:54:00,
2013-04-07 21:09:00,45.5,30.0,29.96,SE,140,1.0,4.0,56,0.00,,,0.00,weatherlink.com 1.10,2013-04-08 01:09:00,
2013-04-07 21:24:00,44.6,31.0,29.96,ESE,107,0.0,7.0,59,0.00,,,0.00,weatherlink.com 1.10,2013-04-08 01:24:00,
2013-04-07 21:39:00,45.1,31.0,29.96,ESE,117,0.0,3.0,59,0.00,,,0.00,weatherlink.com 1.10,2013-04-08 01:39:00,
2013-04-07 21:54:00,43.4,31.0,29.95,East,86,0.0,3.0,63,0.00,,,0.00,weatherlink.com 1.10,2013-04-08 01:54:00,
2013-04-07 22:09:00,43.7,33.0,29.95,ESE,102,0.0,9.0,65,0.00,,,0.00,weatherlink.com 1.10,2013-04-08 02:09:00,
2013-04-07 22:24:00,43.5,33.0,29.95,ESE,102,0.0,2.0,66,0.00,,,0.00,weatherlink.com 1.10,2013-04-08 02:24:00,
2013-04-07 22:39:00,43.7,33.0,29.95,ESE,102,0.0,5.0,66,0.00,,,0.00,weatherlink.com 1.10,2013-04-08 02:39:00,
2013-04-07 22:54:00,43.7,33.0,29.94,ESE,102,0.0,2.0,67,0.00,,,0.00,weatherlink.com 1.10,2013-04-08 02:54:00,
2013-04-07 23:09:00,42.7,33.0,29.94,ESE,102,0.0,1.0,69,0.00,,,0.00,weatherlink.com 1.10,2013-04-08 03:09:00,
2013-04-07 23:24:00,42.0,34.0,29.93,ESE,102,0.0,0.0,72,0.00,,,0.00,weatherlink.com 1.10,2013-04-08 03:24:00,
2013-04-07 23:39:00,41.5,33.0,29.93,ESE,102,1.0,2.0,73,0.00,,,0.00,weatherlink.com 1.10,2013-04-08 03:39:00,
2013-04-07 23:54:00,41.4,34.0,29.94,ESE,102,0.0,3.0,74,0.00,,,0.00,weatherlink.com 1.10,2013-04-08 03:54:00,